sensor_id;sensor_type;location;lat;lon;timestamp;P1;durP1;ratioP1;P2;durP2;ratioP2
51556;SDS011;38766;53.194;5.532;2023-07-31T00:00:27;5.03;;;1.65;;
51556;SDS011;38766;53.194;5.532;2023-07-31T00:02:52;8.77;;;1.73;;
51556;SDS011;38766;53.194;5.532;2023-07-31T00:05:19;4.93;;;2.13;;
51556;SDS011;38766;53.194;5.532;2023-07-31T00:07:45;7.97;;;1.95;;
51556;SDS011;38766;53.194;5.532;2023-07-31T00:10:10;8.15;;;2.33;;
51556;SDS011;38766;53.194;5.532;2023-07-31T00:12:37;10.55;;;2.15;;
51556;SDS011;38766;53.194;5.532;2023-07-31T00:15:03;4.38;;;1.92;;
51556;SDS011;38766;53.194;5.532;2023-07-31T00:17:30;7.47;;;2.45;;
51556;SDS011;38766;53.194;5.532;2023-07-31T00:19:55;7.97;;;2.13;;
51556;SDS011;38766;53.194;5.532;2023-07-31T00:22:21;7.10;;;1.90;;
51556;SDS011;38766;53.194;5.532;2023-07-31T00:24:46;4.82;;;1.73;;
51556;SDS011;38766;53.194;5.532;2023-07-31T00:27:12;7.82;;;2.20;;
51556;SDS011;38766;53.194;5.532;2023-07-31T00:29:38;8.63;;;2.28;;
51556;SDS011;38766;53.194;5.532;2023-07-31T00:32:03;10.23;;;2.00;;
51556;SDS011;38766;53.194;5.532;2023-07-31T00:34:29;4.13;;;1.98;;
51556;SDS011;38766;53.194;5.532;2023-07-31T00:36:55;7.63;;;2.05;;
51556;SDS011;38766;53.194;5.532;2023-07-31T00:39:21;4.78;;;1.88;;
51556;SDS011;38766;53.194;5.532;2023-07-31T00:41:46;5.25;;;2.05;;
51556;SDS011;38766;53.194;5.532;2023-07-31T00:44:12;9.90;;;2.25;;
51556;SDS011;38766;53.194;5.532;2023-07-31T00:46:38;7.65;;;2.33;;
51556;SDS011;38766;53.194;5.532;2023-07-31T00:49:03;3.92;;;1.80;;
51556;SDS011;38766;53.194;5.532;2023-07-31T00:51:30;9.98;;;2.45;;
51556;SDS011;38766;53.194;5.532;2023-07-31T00:53:55;9.48;;;2.13;;
51556;SDS011;38766;53.194;5.532;2023-07-31T00:56:21;8.27;;;2.22;;
51556;SDS011;38766;53.194;5.532;2023-07-31T00:58:48;7.03;;;2.13;;
51556;SDS011;38766;53.194;5.532;2023-07-31T01:01:14;6.60;;;2.20;;
51556;SDS011;38766;53.194;5.532;2023-07-31T01:03:40;8.20;;;2.53;;
51556;SDS011;38766;53.194;5.532;2023-07-31T01:08:49;10.10;;;2.13;;
51556;SDS011;38766;53.194;5.532;2023-07-31T01:13:56;6.25;;;1.70;;
51556;SDS011;38766;53.194;5.532;2023-07-31T01:16:23;6.82;;;2.00;;
51556;SDS011;38766;53.194;5.532;2023-07-31T01:18:50;7.10;;;2.28;;
51556;SDS011;38766;53.194;5.532;2023-07-31T01:21:21;5.43;;;1.90;;
51556;SDS011;38766;53.194;5.532;2023-07-31T01:26:47;4.53;;;2.00;;
51556;SDS011;38766;53.194;5.532;2023-07-31T01:31:51;5.70;;;1.98;;
51556;SDS011;38766;53.194;5.532;2023-07-31T01:34:19;4.93;;;1.58;;
51556;SDS011;38766;53.194;5.532;2023-07-31T01:36:47;7.47;;;1.92;;
51556;SDS011;38766;53.194;5.532;2023-07-31T01:39:13;5.80;;;2.00;;
51556;SDS011;38766;53.194;5.532;2023-07-31T01:41:40;9.13;;;2.20;;
51556;SDS011;38766;53.194;5.532;2023-07-31T01:44:06;4.95;;;1.83;;
51556;SDS011;38766;53.194;5.532;2023-07-31T01:46:32;4.40;;;2.00;;
51556;SDS011;38766;53.194;5.532;2023-07-31T01:48:57;6.20;;;1.80;;
51556;SDS011;38766;53.194;5.532;2023-07-31T01:51:23;5.38;;;1.92;;
51556;SDS011;38766;53.194;5.532;2023-07-31T01:53:48;8.18;;;2.08;;
51556;SDS011;38766;53.194;5.532;2023-07-31T01:56:14;6.03;;;1.98;;
51556;SDS011;38766;53.194;5.532;2023-07-31T01:58:40;6.13;;;2.10;;
51556;SDS011;38766;53.194;5.532;2023-07-31T02:01:06;5.03;;;1.95;;
51556;SDS011;38766;53.194;5.532;2023-07-31T02:03:31;4.38;;;1.67;;
51556;SDS011;38766;53.194;5.532;2023-07-31T02:05:57;6.43;;;2.03;;
51556;SDS011;38766;53.194;5.532;2023-07-31T02:08:23;2.78;;;1.65;;
51556;SDS011;38766;53.194;5.532;2023-07-31T02:10:48;6.38;;;2.13;;
51556;SDS011;38766;53.194;5.532;2023-07-31T02:13:14;5.72;;;1.95;;
51556;SDS011;38766;53.194;5.532;2023-07-31T02:15:39;7.78;;;1.80;;
51556;SDS011;38766;53.194;5.532;2023-07-31T02:18:05;4.00;;;1.88;;
51556;SDS011;38766;53.194;5.532;2023-07-31T02:20:33;4.63;;;2.00;;
51556;SDS011;38766;53.194;5.532;2023-07-31T02:23:00;4.93;;;1.75;;
51556;SDS011;38766;53.194;5.532;2023-07-31T02:25:26;4.57;;;2.10;;
51556;SDS011;38766;53.194;5.532;2023-07-31T02:27:52;5.53;;;2.10;;
51556;SDS011;38766;53.194;5.532;2023-07-31T02:30:17;4.20;;;1.67;;
51556;SDS011;38766;53.194;5.532;2023-07-31T02:32:43;5.72;;;2.13;;
51556;SDS011;38766;53.194;5.532;2023-07-31T02:35:08;4.25;;;1.90;;
51556;SDS011;38766;53.194;5.532;2023-07-31T02:37:34;6.85;;;1.80;;
51556;SDS011;38766;53.194;5.532;2023-07-31T02:40:00;4.65;;;1.63;;
51556;SDS011;38766;53.194;5.532;2023-07-31T02:42:25;4.13;;;1.40;;
51556;SDS011;38766;53.194;5.532;2023-07-31T02:44:51;4.18;;;1.38;;
51556;SDS011;38766;53.194;5.532;2023-07-31T02:47:21;2.65;;;1.70;;
51556;SDS011;38766;53.194;5.532;2023-07-31T02:49:47;3.85;;;1.60;;
51556;SDS011;38766;53.194;5.532;2023-07-31T02:52:12;3.97;;;1.75;;
51556;SDS011;38766;53.194;5.532;2023-07-31T02:54:38;4.35;;;1.52;;
51556;SDS011;38766;53.194;5.532;2023-07-31T02:57:04;2.88;;;1.10;;
51556;SDS011;38766;53.194;5.532;2023-07-31T02:59:29;1.20;;;0.90;;
51556;SDS011;38766;53.194;5.532;2023-07-31T03:01:55;2.40;;;1.30;;
51556;SDS011;38766;53.194;5.532;2023-07-31T03:04:21;2.65;;;1.10;;
51556;SDS011;38766;53.194;5.532;2023-07-31T03:06:46;1.13;;;0.80;;
51556;SDS011;38766;53.194;5.532;2023-07-31T03:09:12;1.80;;;0.80;;
51556;SDS011;38766;53.194;5.532;2023-07-31T03:11:37;2.28;;;0.70;;
51556;SDS011;38766;53.194;5.532;2023-07-31T03:14:03;1.60;;;1.10;;
51556;SDS011;38766;53.194;5.532;2023-07-31T03:16:29;2.33;;;1.10;;
51556;SDS011;38766;53.194;5.532;2023-07-31T03:18:54;1.92;;;1.30;;
51556;SDS011;38766;53.194;5.532;2023-07-31T03:21:20;3.10;;;1.10;;
51556;SDS011;38766;53.194;5.532;2023-07-31T03:23:45;3.05;;;1.42;;
51556;SDS011;38766;53.194;5.532;2023-07-31T03:26:11;6.60;;;1.85;;
51556;SDS011;38766;53.194;5.532;2023-07-31T03:28:37;4.63;;;2.20;;
51556;SDS011;38766;53.194;5.532;2023-07-31T03:31:02;5.85;;;2.13;;
51556;SDS011;38766;53.194;5.532;2023-07-31T03:33:28;6.90;;;2.35;;
51556;SDS011;38766;53.194;5.532;2023-07-31T03:35:54;9.95;;;3.70;;
51556;SDS011;38766;53.194;5.532;2023-07-31T03:38:19;7.95;;;2.90;;
51556;SDS011;38766;53.194;5.532;2023-07-31T03:40:45;9.95;;;2.97;;
51556;SDS011;38766;53.194;5.532;2023-07-31T03:43:11;13.63;;;3.35;;
51556;SDS011;38766;53.194;5.532;2023-07-31T03:45:38;15.05;;;4.00;;
51556;SDS011;38766;53.194;5.532;2023-07-31T03:48:04;10.23;;;4.03;;
51556;SDS011;38766;53.194;5.532;2023-07-31T03:50:30;13.85;;;4.18;;
51556;SDS011;38766;53.194;5.532;2023-07-31T03:52:55;11.20;;;4.93;;
51556;SDS011;38766;53.194;5.532;2023-07-31T03:55:21;19.10;;;5.47;;
51556;SDS011;38766;53.194;5.532;2023-07-31T03:57:47;13.10;;;5.03;;
51556;SDS011;38766;53.194;5.532;2023-07-31T04:00:13;13.98;;;5.07;;
51556;SDS011;38766;53.194;5.532;2023-07-31T04:02:38;8.98;;;4.38;;
51556;SDS011;38766;53.194;5.532;2023-07-31T04:05:04;10.80;;;4.80;;
51556;SDS011;38766;53.194;5.532;2023-07-31T04:07:30;13.02;;;5.13;;
51556;SDS011;38766;53.194;5.532;2023-07-31T04:09:56;13.15;;;4.38;;
51556;SDS011;38766;53.194;5.532;2023-07-31T04:12:22;8.80;;;4.32;;
51556;SDS011;38766;53.194;5.532;2023-07-31T04:14:48;12.52;;;5.28;;
51556;SDS011;38766;53.194;5.532;2023-07-31T04:17:14;11.93;;;5.05;;
51556;SDS011;38766;53.194;5.532;2023-07-31T04:19:40;14.50;;;4.60;;
51556;SDS011;38766;53.194;5.532;2023-07-31T04:22:05;14.35;;;4.70;;
51556;SDS011;38766;53.194;5.532;2023-07-31T04:24:31;20.42;;;5.60;;
51556;SDS011;38766;53.194;5.532;2023-07-31T04:26:57;18.58;;;4.90;;
51556;SDS011;38766;53.194;5.532;2023-07-31T04:29:22;13.27;;;4.88;;
51556;SDS011;38766;53.194;5.532;2023-07-31T04:31:49;15.85;;;4.90;;
51556;SDS011;38766;53.194;5.532;2023-07-31T04:34:14;15.82;;;4.75;;
51556;SDS011;38766;53.194;5.532;2023-07-31T04:36:40;14.63;;;4.65;;
51556;SDS011;38766;53.194;5.532;2023-07-31T04:39:05;15.05;;;5.43;;
51556;SDS011;38766;53.194;5.532;2023-07-31T04:41:31;15.75;;;5.45;;
51556;SDS011;38766;53.194;5.532;2023-07-31T04:43:57;22.70;;;5.72;;
51556;SDS011;38766;53.194;5.532;2023-07-31T04:46:22;16.67;;;5.75;;
51556;SDS011;38766;53.194;5.532;2023-07-31T04:48:48;18.05;;;5.70;;
51556;SDS011;38766;53.194;5.532;2023-07-31T04:51:14;20.65;;;6.95;;
51556;SDS011;38766;53.194;5.532;2023-07-31T04:53:39;23.85;;;6.80;;
51556;SDS011;38766;53.194;5.532;2023-07-31T04:56:05;26.67;;;6.63;;
51556;SDS011;38766;53.194;5.532;2023-07-31T04:58:31;21.73;;;7.15;;
51556;SDS011;38766;53.194;5.532;2023-07-31T05:00:56;29.95;;;7.28;;
51556;SDS011;38766;53.194;5.532;2023-07-31T05:03:22;24.52;;;7.60;;
51556;SDS011;38766;53.194;5.532;2023-07-31T05:05:47;18.27;;;6.53;;
51556;SDS011;38766;53.194;5.532;2023-07-31T05:08:13;18.05;;;6.78;;
51556;SDS011;38766;53.194;5.532;2023-07-31T05:10:39;13.63;;;5.13;;
51556;SDS011;38766;53.194;5.532;2023-07-31T05:13:04;10.50;;;5.45;;
51556;SDS011;38766;53.194;5.532;2023-07-31T05:15:30;15.38;;;5.35;;
51556;SDS011;38766;53.194;5.532;2023-07-31T05:17:56;14.95;;;4.70;;
51556;SDS011;38766;53.194;5.532;2023-07-31T05:20:21;18.42;;;5.13;;
51556;SDS011;38766;53.194;5.532;2023-07-31T05:22:47;16.92;;;5.40;;
51556;SDS011;38766;53.194;5.532;2023-07-31T05:25:13;21.33;;;5.80;;
51556;SDS011;38766;53.194;5.532;2023-07-31T05:27:39;17.60;;;4.93;;
51556;SDS011;38766;53.194;5.532;2023-07-31T05:30:05;16.08;;;5.30;;
51556;SDS011;38766;53.194;5.532;2023-07-31T05:32:31;13.63;;;5.00;;
51556;SDS011;38766;53.194;5.532;2023-07-31T05:34:57;14.45;;;4.85;;
51556;SDS011;38766;53.194;5.532;2023-07-31T05:37:22;15.88;;;4.82;;
51556;SDS011;38766;53.194;5.532;2023-07-31T05:39:48;13.55;;;4.55;;
51556;SDS011;38766;53.194;5.532;2023-07-31T05:42:14;11.80;;;4.55;;
51556;SDS011;38766;53.194;5.532;2023-07-31T05:44:39;12.20;;;4.32;;
51556;SDS011;38766;53.194;5.532;2023-07-31T05:47:05;10.73;;;4.60;;
51556;SDS011;38766;53.194;5.532;2023-07-31T05:49:30;10.10;;;4.22;;
51556;SDS011;38766;53.194;5.532;2023-07-31T05:51:56;13.18;;;3.83;;
51556;SDS011;38766;53.194;5.532;2023-07-31T05:54:22;8.65;;;3.20;;
51556;SDS011;38766;53.194;5.532;2023-07-31T05:56:47;6.10;;;3.40;;
51556;SDS011;38766;53.194;5.532;2023-07-31T05:59:13;12.70;;;3.55;;
51556;SDS011;38766;53.194;5.532;2023-07-31T06:01:39;12.18;;;3.92;;
51556;SDS011;38766;53.194;5.532;2023-07-31T06:04:05;8.32;;;3.15;;
51556;SDS011;38766;53.194;5.532;2023-07-31T06:06:30;12.80;;;3.60;;
51556;SDS011;38766;53.194;5.532;2023-07-31T06:08:56;12.70;;;3.75;;
51556;SDS011;38766;53.194;5.532;2023-07-31T06:11:22;11.77;;;3.97;;
51556;SDS011;38766;53.194;5.532;2023-07-31T06:13:48;12.10;;;3.85;;
51556;SDS011;38766;53.194;5.532;2023-07-31T06:16:15;12.02;;;4.43;;
51556;SDS011;38766;53.194;5.532;2023-07-31T06:18:42;9.02;;;3.67;;
51556;SDS011;38766;53.194;5.532;2023-07-31T06:21:07;14.07;;;4.40;;
51556;SDS011;38766;53.194;5.532;2023-07-31T06:23:34;10.48;;;3.72;;
51556;SDS011;38766;53.194;5.532;2023-07-31T06:25:59;12.43;;;4.00;;
51556;SDS011;38766;53.194;5.532;2023-07-31T06:28:27;7.40;;;2.75;;
51556;SDS011;38766;53.194;5.532;2023-07-31T06:30:56;5.18;;;2.10;;
51556;SDS011;38766;53.194;5.532;2023-07-31T06:33:26;4.32;;;2.28;;
51556;SDS011;38766;53.194;5.532;2023-07-31T06:35:54;4.97;;;2.05;;
51556;SDS011;38766;53.194;5.532;2023-07-31T06:38:24;3.03;;;2.03;;
51556;SDS011;38766;53.194;5.532;2023-07-31T06:40:53;6.07;;;2.40;;
51556;SDS011;38766;53.194;5.532;2023-07-31T06:43:19;9.25;;;2.42;;
51556;SDS011;38766;53.194;5.532;2023-07-31T06:45:44;6.47;;;2.53;;
51556;SDS011;38766;53.194;5.532;2023-07-31T06:48:11;5.45;;;2.22;;
51556;SDS011;38766;53.194;5.532;2023-07-31T06:50:37;6.13;;;2.17;;
51556;SDS011;38766;53.194;5.532;2023-07-31T06:53:02;2.95;;;2.00;;
51556;SDS011;38766;53.194;5.532;2023-07-31T06:55:28;4.28;;;2.20;;
51556;SDS011;38766;53.194;5.532;2023-07-31T06:57:54;6.63;;;2.28;;
51556;SDS011;38766;53.194;5.532;2023-07-31T07:00:21;3.22;;;1.92;;
51556;SDS011;38766;53.194;5.532;2023-07-31T07:02:48;5.13;;;1.90;;
51556;SDS011;38766;53.194;5.532;2023-07-31T07:05:15;4.40;;;1.85;;
51556;SDS011;38766;53.194;5.532;2023-07-31T07:07:43;2.25;;;1.85;;
51556;SDS011;38766;53.194;5.532;2023-07-31T07:10:09;3.53;;;1.70;;
51556;SDS011;38766;53.194;5.532;2023-07-31T07:12:35;3.03;;;1.85;;
51556;SDS011;38766;53.194;5.532;2023-07-31T07:15:02;4.45;;;1.90;;
51556;SDS011;38766;53.194;5.532;2023-07-31T07:17:28;2.80;;;1.58;;
51556;SDS011;38766;53.194;5.532;2023-07-31T07:19:57;5.25;;;1.40;;
51556;SDS011;38766;53.194;5.532;2023-07-31T07:22:24;4.47;;;1.90;;
51556;SDS011;38766;53.194;5.532;2023-07-31T07:24:51;4.63;;;1.60;;
51556;SDS011;38766;53.194;5.532;2023-07-31T07:27:16;4.15;;;1.33;;
51556;SDS011;38766;53.194;5.532;2023-07-31T07:29:42;8.70;;;1.50;;
51556;SDS011;38766;53.194;5.532;2023-07-31T07:32:08;6.28;;;1.60;;
51556;SDS011;38766;53.194;5.532;2023-07-31T07:34:33;5.60;;;1.50;;
51556;SDS011;38766;53.194;5.532;2023-07-31T07:36:59;7.30;;;1.42;;
51556;SDS011;38766;53.194;5.532;2023-07-31T07:39:25;8.43;;;1.63;;
51556;SDS011;38766;53.194;5.532;2023-07-31T07:41:50;4.13;;;1.52;;
51556;SDS011;38766;53.194;5.532;2023-07-31T07:44:16;5.75;;;1.20;;
51556;SDS011;38766;53.194;5.532;2023-07-31T07:46:41;5.55;;;1.38;;
51556;SDS011;38766;53.194;5.532;2023-07-31T07:49:08;3.22;;;1.40;;
51556;SDS011;38766;53.194;5.532;2023-07-31T07:51:34;6.45;;;1.55;;
51556;SDS011;38766;53.194;5.532;2023-07-31T07:53:59;5.00;;;1.58;;
51556;SDS011;38766;53.194;5.532;2023-07-31T07:56:25;6.30;;;1.50;;
51556;SDS011;38766;53.194;5.532;2023-07-31T07:58:52;6.63;;;1.80;;
51556;SDS011;38766;53.194;5.532;2023-07-31T08:01:18;4.40;;;1.63;;
51556;SDS011;38766;53.194;5.532;2023-07-31T08:03:44;5.30;;;1.80;;
51556;SDS011;38766;53.194;5.532;2023-07-31T08:06:09;3.38;;;1.55;;
51556;SDS011;38766;53.194;5.532;2023-07-31T08:08:35;2.42;;;1.40;;
51556;SDS011;38766;53.194;5.532;2023-07-31T08:11:01;5.30;;;1.73;;
51556;SDS011;38766;53.194;5.532;2023-07-31T08:13:27;1.98;;;1.25;;
51556;SDS011;38766;53.194;5.532;2023-07-31T08:15:53;4.18;;;1.42;;
51556;SDS011;38766;53.194;5.532;2023-07-31T08:18:18;3.38;;;1.58;;
51556;SDS011;38766;53.194;5.532;2023-07-31T08:20:45;4.97;;;1.92;;
51556;SDS011;38766;53.194;5.532;2023-07-31T08:23:11;4.45;;;1.25;;
51556;SDS011;38766;53.194;5.532;2023-07-31T08:25:37;4.72;;;1.05;;
51556;SDS011;38766;53.194;5.532;2023-07-31T08:28:03;5.72;;;1.60;;
51556;SDS011;38766;53.194;5.532;2023-07-31T08:30:29;3.25;;;1.45;;
51556;SDS011;38766;53.194;5.532;2023-07-31T08:32:55;6.05;;;1.63;;
51556;SDS011;38766;53.194;5.532;2023-07-31T08:35:21;4.18;;;1.30;;
51556;SDS011;38766;53.194;5.532;2023-07-31T08:37:47;5.00;;;1.73;;
51556;SDS011;38766;53.194;5.532;2023-07-31T08:40:12;4.00;;;1.73;;
51556;SDS011;38766;53.194;5.532;2023-07-31T08:42:45;5.85;;;1.52;;
51556;SDS011;38766;53.194;5.532;2023-07-31T08:45:15;8.32;;;1.92;;
51556;SDS011;38766;53.194;5.532;2023-07-31T08:47:45;3.75;;;1.50;;
51556;SDS011;38766;53.194;5.532;2023-07-31T08:50:13;4.22;;;1.25;;
51556;SDS011;38766;53.194;5.532;2023-07-31T08:52:39;4.90;;;1.50;;
51556;SDS011;38766;53.194;5.532;2023-07-31T08:55:06;3.03;;;1.50;;
51556;SDS011;38766;53.194;5.532;2023-07-31T08:57:34;4.97;;;1.52;;
51556;SDS011;38766;53.194;5.532;2023-07-31T09:00:00;7.60;;;1.80;;
51556;SDS011;38766;53.194;5.532;2023-07-31T09:02:45;3.28;;;1.17;;
51556;SDS011;38766;53.194;5.532;2023-07-31T09:05:13;2.97;;;1.27;;
51556;SDS011;38766;53.194;5.532;2023-07-31T09:07:40;2.08;;;1.05;;
51556;SDS011;38766;53.194;5.532;2023-07-31T09:10:11;4.03;;;1.38;;
51556;SDS011;38766;53.194;5.532;2023-07-31T09:12:37;5.65;;;1.90;;
51556;SDS011;38766;53.194;5.532;2023-07-31T09:15:04;3.65;;;1.90;;
51556;SDS011;38766;53.194;5.532;2023-07-31T09:17:30;7.50;;;1.80;;
51556;SDS011;38766;53.194;5.532;2023-07-31T09:22:46;5.13;;;1.95;;
51556;SDS011;38766;53.194;5.532;2023-07-31T09:25:17;10.10;;;2.22;;
51556;SDS011;38766;53.194;5.532;2023-07-31T09:27:51;10.90;;;2.30;;
51556;SDS011;38766;53.194;5.532;2023-07-31T09:30:22;8.05;;;2.30;;
51556;SDS011;38766;53.194;5.532;2023-07-31T09:32:49;6.68;;;2.00;;
51556;SDS011;38766;53.194;5.532;2023-07-31T09:38:03;8.57;;;2.55;;
51556;SDS011;38766;53.194;5.532;2023-07-31T09:40:31;9.52;;;2.75;;
51556;SDS011;38766;53.194;5.532;2023-07-31T09:43:00;9.25;;;2.70;;
51556;SDS011;38766;53.194;5.532;2023-07-31T09:45:28;8.23;;;2.67;;
51556;SDS011;38766;53.194;5.532;2023-07-31T09:47:54;7.80;;;2.53;;
51556;SDS011;38766;53.194;5.532;2023-07-31T09:50:21;6.00;;;2.33;;
51556;SDS011;38766;53.194;5.532;2023-07-31T09:52:49;7.95;;;2.75;;
51556;SDS011;38766;53.194;5.532;2023-07-31T09:55:15;8.52;;;2.88;;
51556;SDS011;38766;53.194;5.532;2023-07-31T09:57:42;8.35;;;2.75;;
51556;SDS011;38766;53.194;5.532;2023-07-31T10:00:11;9.60;;;2.85;;
51556;SDS011;38766;53.194;5.532;2023-07-31T10:02:37;7.78;;;2.47;;
51556;SDS011;38766;53.194;5.532;2023-07-31T10:05:04;7.88;;;2.63;;
51556;SDS011;38766;53.194;5.532;2023-07-31T10:07:31;7.72;;;2.53;;
51556;SDS011;38766;53.194;5.532;2023-07-31T10:10:01;7.38;;;2.10;;
51556;SDS011;38766;53.194;5.532;2023-07-31T10:12:29;7.18;;;2.10;;
51556;SDS011;38766;53.194;5.532;2023-07-31T10:14:57;7.30;;;2.38;;
51556;SDS011;38766;53.194;5.532;2023-07-31T10:17:25;3.65;;;1.90;;
51556;SDS011;38766;53.194;5.532;2023-07-31T10:19:51;8.68;;;1.98;;
51556;SDS011;38766;53.194;5.532;2023-07-31T10:22:18;4.75;;;1.90;;
51556;SDS011;38766;53.194;5.532;2023-07-31T10:24:45;6.20;;;1.95;;
51556;SDS011;38766;53.194;5.532;2023-07-31T10:27:11;6.53;;;1.90;;
51556;SDS011;38766;53.194;5.532;2023-07-31T10:29:38;5.55;;;2.03;;
51556;SDS011;38766;53.194;5.532;2023-07-31T10:32:09;3.05;;;1.83;;
51556;SDS011;38766;53.194;5.532;2023-07-31T10:34:36;8.75;;;2.08;;
51556;SDS011;38766;53.194;5.532;2023-07-31T10:40:01;8.40;;;2.35;;
51556;SDS011;38766;53.194;5.532;2023-07-31T10:42:37;9.77;;;2.73;;
51556;SDS011;38766;53.194;5.532;2023-07-31T10:45:34;7.93;;;2.58;;
51556;SDS011;38766;53.194;5.532;2023-07-31T10:48:12;7.68;;;3.38;;
51556;SDS011;38766;53.194;5.532;2023-07-31T10:50:45;8.73;;;2.63;;
51556;SDS011;38766;53.194;5.532;2023-07-31T10:53:25;10.23;;;3.10;;
51556;SDS011;38766;53.194;5.532;2023-07-31T10:55:59;11.48;;;2.75;;
51556;SDS011;38766;53.194;5.532;2023-07-31T10:58:29;11.07;;;2.87;;
51556;SDS011;38766;53.194;5.532;2023-07-31T11:00:58;7.00;;;2.60;;
51556;SDS011;38766;53.194;5.532;2023-07-31T11:03:43;8.98;;;2.33;;
51556;SDS011;38766;53.194;5.532;2023-07-31T11:06:14;8.88;;;2.60;;
51556;SDS011;38766;53.194;5.532;2023-07-31T11:08:41;6.60;;;2.13;;
51556;SDS011;38766;53.194;5.532;2023-07-31T11:11:15;4.85;;;2.03;;
51556;SDS011;38766;53.194;5.532;2023-07-31T11:16:15;4.55;;;1.50;;
51556;SDS011;38766;53.194;5.532;2023-07-31T11:18:43;3.70;;;1.80;;
51556;SDS011;38766;53.194;5.532;2023-07-31T11:21:13;4.65;;;1.65;;
51556;SDS011;38766;53.194;5.532;2023-07-31T11:23:39;4.97;;;1.83;;
51556;SDS011;38766;53.194;5.532;2023-07-31T11:26:06;5.72;;;2.20;;
51556;SDS011;38766;53.194;5.532;2023-07-31T11:28:33;8.25;;;2.38;;
51556;SDS011;38766;53.194;5.532;2023-07-31T11:30:59;6.80;;;2.70;;
51556;SDS011;38766;53.194;5.532;2023-07-31T11:33:26;7.28;;;2.58;;
51556;SDS011;38766;53.194;5.532;2023-07-31T11:35:51;10.18;;;2.80;;
51556;SDS011;38766;53.194;5.532;2023-07-31T11:38:27;11.95;;;3.10;;
51556;SDS011;38766;53.194;5.532;2023-07-31T11:40:56;8.27;;;3.00;;
51556;SDS011;38766;53.194;5.532;2023-07-31T11:43:23;11.52;;;2.97;;
51556;SDS011;38766;53.194;5.532;2023-07-31T11:45:54;10.13;;;2.85;;
51556;SDS011;38766;53.194;5.532;2023-07-31T11:48:21;8.18;;;2.58;;
51556;SDS011;38766;53.194;5.532;2023-07-31T11:50:52;10.85;;;3.25;;
51556;SDS011;38766;53.194;5.532;2023-07-31T11:53:27;7.47;;;3.03;;
51556;SDS011;38766;53.194;5.532;2023-07-31T11:55:53;10.35;;;3.20;;
51556;SDS011;38766;53.194;5.532;2023-07-31T11:58:20;10.18;;;3.13;;
51556;SDS011;38766;53.194;5.532;2023-07-31T12:00:47;10.32;;;2.92;;
51556;SDS011;38766;53.194;5.532;2023-07-31T12:03:13;6.75;;;2.67;;
51556;SDS011;38766;53.194;5.532;2023-07-31T12:05:39;9.10;;;2.83;;
51556;SDS011;38766;53.194;5.532;2023-07-31T12:08:11;11.27;;;3.50;;
51556;SDS011;38766;53.194;5.532;2023-07-31T12:10:37;15.02;;;3.00;;
51556;SDS011;38766;53.194;5.532;2023-07-31T12:13:20;12.60;;;3.13;;
51556;SDS011;38766;53.194;5.532;2023-07-31T12:15:47;10.85;;;3.03;;
51556;SDS011;38766;53.194;5.532;2023-07-31T12:18:13;9.48;;;3.10;;
51556;SDS011;38766;53.194;5.532;2023-07-31T12:20:40;11.55;;;3.03;;
51556;SDS011;38766;53.194;5.532;2023-07-31T12:23:07;10.90;;;3.10;;
51556;SDS011;38766;53.194;5.532;2023-07-31T12:25:37;15.20;;;3.20;;
51556;SDS011;38766;53.194;5.532;2023-07-31T12:28:06;15.90;;;3.45;;
51556;SDS011;38766;53.194;5.532;2023-07-31T12:30:39;12.63;;;3.42;;
51556;SDS011;38766;53.194;5.532;2023-07-31T12:33:15;10.88;;;3.38;;
51556;SDS011;38766;53.194;5.532;2023-07-31T12:35:43;15.00;;;3.58;;
51556;SDS011;38766;53.194;5.532;2023-07-31T12:38:11;17.23;;;3.60;;
51556;SDS011;38766;53.194;5.532;2023-07-31T12:40:38;11.57;;;3.50;;
51556;SDS011;38766;53.194;5.532;2023-07-31T12:43:05;12.75;;;3.88;;
51556;SDS011;38766;53.194;5.532;2023-07-31T12:45:31;12.40;;;3.50;;
51556;SDS011;38766;53.194;5.532;2023-07-31T12:47:58;12.55;;;3.85;;
51556;SDS011;38766;53.194;5.532;2023-07-31T12:50:24;12.48;;;3.13;;
51556;SDS011;38766;53.194;5.532;2023-07-31T12:52:50;10.30;;;3.25;;
51556;SDS011;38766;53.194;5.532;2023-07-31T12:55:18;9.40;;;2.97;;
51556;SDS011;38766;53.194;5.532;2023-07-31T12:57:43;9.18;;;3.65;;
51556;SDS011;38766;53.194;5.532;2023-07-31T13:00:09;8.20;;;3.35;;
51556;SDS011;38766;53.194;5.532;2023-07-31T13:02:36;11.63;;;3.03;;
51556;SDS011;38766;53.194;5.532;2023-07-31T13:05:01;10.02;;;3.05;;
51556;SDS011;38766;53.194;5.532;2023-07-31T13:07:27;10.93;;;3.50;;
51556;SDS011;38766;53.194;5.532;2023-07-31T13:09:53;8.52;;;2.85;;
51556;SDS011;38766;53.194;5.532;2023-07-31T13:12:18;15.48;;;3.50;;
51556;SDS011;38766;53.194;5.532;2023-07-31T13:14:44;10.35;;;3.88;;
51556;SDS011;38766;53.194;5.532;2023-07-31T13:17:10;11.07;;;3.20;;
51556;SDS011;38766;53.194;5.532;2023-07-31T13:19:35;6.63;;;2.95;;
51556;SDS011;38766;53.194;5.532;2023-07-31T13:22:01;16.08;;;3.63;;
51556;SDS011;38766;53.194;5.532;2023-07-31T13:24:26;10.35;;;3.45;;
51556;SDS011;38766;53.194;5.532;2023-07-31T13:26:53;9.93;;;3.25;;
51556;SDS011;38766;53.194;5.532;2023-07-31T13:29:18;7.20;;;3.45;;
51556;SDS011;38766;53.194;5.532;2023-07-31T13:31:44;10.18;;;3.42;;
51556;SDS011;38766;53.194;5.532;2023-07-31T13:34:09;10.15;;;3.00;;
51556;SDS011;38766;53.194;5.532;2023-07-31T13:36:35;14.25;;;3.78;;
51556;SDS011;38766;53.194;5.532;2023-07-31T13:39:02;12.52;;;3.70;;
51556;SDS011;38766;53.194;5.532;2023-07-31T13:41:28;13.23;;;3.75;;
51556;SDS011;38766;53.194;5.532;2023-07-31T13:43:53;13.40;;;3.95;;
51556;SDS011;38766;53.194;5.532;2023-07-31T13:46:19;13.30;;;4.07;;
51556;SDS011;38766;53.194;5.532;2023-07-31T13:48:45;14.55;;;4.70;;
51556;SDS011;38766;53.194;5.532;2023-07-31T13:51:10;13.70;;;4.18;;
51556;SDS011;38766;53.194;5.532;2023-07-31T13:53:36;17.60;;;3.90;;
51556;SDS011;38766;53.194;5.532;2023-07-31T13:56:01;17.00;;;4.30;;
51556;SDS011;38766;53.194;5.532;2023-07-31T13:58:27;13.98;;;4.00;;
51556;SDS011;38766;53.194;5.532;2023-07-31T14:00:53;13.75;;;4.57;;
51556;SDS011;38766;53.194;5.532;2023-07-31T14:03:19;11.68;;;3.60;;
51556;SDS011;38766;53.194;5.532;2023-07-31T14:05:44;14.10;;;3.83;;
51556;SDS011;38766;53.194;5.532;2023-07-31T14:08:10;14.75;;;4.25;;
51556;SDS011;38766;53.194;5.532;2023-07-31T14:10:35;7.72;;;3.30;;
51556;SDS011;38766;53.194;5.532;2023-07-31T14:13:01;10.57;;;3.35;;
51556;SDS011;38766;53.194;5.532;2023-07-31T14:15:27;11.80;;;3.58;;
51556;SDS011;38766;53.194;5.532;2023-07-31T14:17:53;14.52;;;3.58;;
51556;SDS011;38766;53.194;5.532;2023-07-31T14:20:19;16.98;;;3.80;;
51556;SDS011;38766;53.194;5.532;2023-07-31T14:22:44;10.02;;;3.67;;
51556;SDS011;38766;53.194;5.532;2023-07-31T14:25:10;15.18;;;3.97;;
51556;SDS011;38766;53.194;5.532;2023-07-31T14:27:36;11.45;;;3.72;;
51556;SDS011;38766;53.194;5.532;2023-07-31T14:30:02;14.80;;;3.30;;
51556;SDS011;38766;53.194;5.532;2023-07-31T14:32:28;9.93;;;3.42;;
51556;SDS011;38766;53.194;5.532;2023-07-31T14:34:53;10.77;;;3.05;;
51556;SDS011;38766;53.194;5.532;2023-07-31T14:37:20;12.85;;;3.83;;
51556;SDS011;38766;53.194;5.532;2023-07-31T14:39:46;11.60;;;3.17;;
51556;SDS011;38766;53.194;5.532;2023-07-31T14:42:11;19.05;;;4.13;;
51556;SDS011;38766;53.194;5.532;2023-07-31T14:44:37;12.68;;;3.30;;
51556;SDS011;38766;53.194;5.532;2023-07-31T14:47:03;12.32;;;3.30;;
51556;SDS011;38766;53.194;5.532;2023-07-31T14:49:29;11.50;;;3.40;;
51556;SDS011;38766;53.194;5.532;2023-07-31T14:51:55;12.60;;;4.07;;
51556;SDS011;38766;53.194;5.532;2023-07-31T14:54:20;8.43;;;3.03;;
51556;SDS011;38766;53.194;5.532;2023-07-31T14:56:46;9.50;;;2.85;;
51556;SDS011;38766;53.194;5.532;2023-07-31T14:59:12;15.40;;;3.72;;
51556;SDS011;38766;53.194;5.532;2023-07-31T15:01:37;9.45;;;3.33;;